Terminal Aerodrome Forecast
Issued by NWS

Home | Current Version | Previous Version | Text Only | Print | Product List | Glossary On
Versions: 1 2 3 4 5 6 7 8 9 10 11 12 13 14 15
000
FTUS45 KRIW 010500
TAFJAC
TAF
KJAC 010531Z 0106/0206 21005KT P6SM VCSH SCT020 OVC050
      TEMPO 0109/0112 2SM -SN BKN030
     FM011200 VRB05KT P6SM VCSH OVC030
     FM011800 21010KT P6SM VCSH SCT025 BKN040
     FM020000 17006KT P6SM SCT040
      AMD LTD TO CLD VIS AND WIND=

USA.gov is the U.S. government's official web portal to all federal, state and local government web resources and services.